Time;durP1;ratioP1;P1;durP2;ratioP2;P2;SDS_P1;SDS_P2;PMS_P1;PMS_P2;Temp;Humidity;BMP_temperature;BMP_pressure;BME280_temperature;BME280_humidity;BME280_pressure;Samples;Min_cycle;Max_cycle;Signal;HPM_P1;HPM_P2
2021/05/17 14:20:03;;;;;;;3.08;1.05;;;;;;;;;;5113997;27;20939;-78
2021/05/17 14:22:47;;;;;;;5.53;1.20;;;;;;;;;;5127142;28;20111;-82
2021/05/17 14:25:32;;;;;;;3.78;1.20;;;;;;;;;;5128734;28;20046;-79
2021/05/17 14:28:17;;;;;;;4.35;1.10;;;;;;;;;;5128340;28;20457;-82
2021/05/17 14:31:01;;;;;;;2.58;0.93;;;;;;;;;;5107697;28;20078;-79
2021/05/17 14:33:46;;;;;;;2.35;1.10;;;;;;;;;;5122556;28;20119;-79
2021/05/17 14:36:34;;;;;;;2.65;0.95;;;;;;;;;;5123158;28;20046;-79
2021/05/17 14:39:19;;;;;;;2.53;1.17;;;;;;;;;;5118746;28;20072;-79
2021/05/17 14:42:03;;;;;;;2.83;1.05;;;;;;;;;;5121265;28;20081;-78
2021/05/17 14:44:49;;;;;;;3.25;1.08;;;;;;;;;;5111814;28;20088;-81
2021/05/17 14:47:34;;;;;;;2.80;1.00;;;;;;;;;;5122822;28;20379;-81
2021/05/17 14:50:19;;;;;;;1.75;1.02;;;;;;;;;;5122557;28;20160;-82
2021/05/17 14:53:04;;;;;;;3.72;0.98;;;;;;;;;;5123418;28;20034;-81
2021/05/17 14:55:48;;;;;;;2.17;1.05;;;;;;;;;;5123614;28;20038;-81
2021/05/17 14:58:33;;;;;;;1.50;0.90;;;;;;;;;;5123276;28;20096;-81
2021/05/17 15:01:18;;;;;;;2.97;1.10;;;;;;;;;;5119854;28;20034;-79
2021/05/17 15:04:03;;;;;;;3.25;1.00;;;;;;;;;;5118603;28;20138;-80
2021/05/17 15:06:49;;;;;;;1.80;1.10;;;;;;;;;;5103966;28;20039;-82
2021/05/17 15:09:34;;;;;;;3.00;1.25;;;;;;;;;;5118595;28;20046;-80
2021/05/17 15:12:18;;;;;;;2.35;1.17;;;;;;;;;;5123746;28;20050;-79
2021/05/17 15:15:04;;;;;;;2.83;1.20;;;;;;;;;;5112135;28;20481;-78
2021/05/17 15:17:49;;;;;;;2.13;1.10;;;;;;;;;;5120751;28;20046;-80
2021/05/17 15:20:33;;;;;;;1.58;1.08;;;;;;;;;;5113032;28;20050;-79
2021/05/17 15:23:22;;;;;;;2.05;1.05;;;;;;;;;;5108675;28;20062;-80
2021/05/17 15:26:06;;;;;;;2.33;1.00;;;;;;;;;;5109674;28;20038;-81
2021/05/17 15:28:51;;;;;;;1.60;1.05;;;;;;;;;;5110555;28;20096;-80
2021/05/17 15:31:37;;;;;;;2.08;1.10;;;;;;;;;;5108997;28;20038;-83
2021/05/17 15:34:22;;;;;;;1.73;0.93;;;;;;;;;;5110197;28;20042;-81
2021/05/17 15:37:06;;;;;;;2.58;1.10;;;;;;;;;;5108124;28;20042;-81
2021/05/17 15:39:51;;;;;;;2.08;1.10;;;;;;;;;;5109665;28;20089;-82
2021/05/17 15:42:36;;;;;;;2.38;1.10;;;;;;;;;;5110182;28;20078;-79
2021/05/17 15:45:23;;;;;;;3.00;1.13;;;;;;;;;;5104570;28;20039;-80
2021/05/17 15:48:08;;;;;;;2.45;1.15;;;;;;;;;;5108710;28;20082;-79
2021/05/17 15:50:53;;;;;;;2.78;1.20;;;;;;;;;;5110987;28;20089;-80
2021/05/17 15:53:38;;;;;;;1.13;1.00;;;;;;;;;;5109061;28;20564;-81
2021/05/17 15:56:22;;;;;;;2.05;1.10;;;;;;;;;;5108851;28;20047;-80
2021/05/17 15:59:07;;;;;;;1.60;1.10;;;;;;;;;;5099480;28;20076;-79
2021/05/17 16:01:51;;;;;;;1.58;0.98;;;;;;;;;;5092399;28;20459;-80
2021/05/17 16:04:35;;;;;;;1.92;1.00;;;;;;;;;;5102018;28;20082;-80
2021/05/17 16:07:20;;;;;;;2.10;1.15;;;;;;;;;;5109160;28;20104;-81
2021/05/17 16:10:05;;;;;;;1.70;1.20;;;;;;;;;;5100802;28;20664;-80
2021/05/17 16:15:56;;;;;;;1.58;1.10;;;;;;;;;;5090954;28;20051;-78
2021/05/17 16:21:28;;;;;;;2.00;1.20;;;;;;;;;;5105982;28;20547;-77
2021/05/17 16:24:13;;;;;;;1.60;1.10;;;;;;;;;;5100955;28;20039;-78
2021/05/17 16:26:57;;;;;;;1.75;1.00;;;;;;;;;;5089118;28;20492;-78
2021/05/17 16:29:43;;;;;;;1.65;1.10;;;;;;;;;;5091194;28;20105;-78
2021/05/17 16:32:27;;;;;;;1.83;1.15;;;;;;;;;;5106104;28;20062;-77
2021/05/17 16:35:12;;;;;;;1.83;1.08;;;;;;;;;;5101892;28;20042;-79
2021/05/17 16:37:57;;;;;;;1.75;1.10;;;;;;;;;;5103244;28;20062;-79
2021/05/17 16:40:42;;;;;;;1.73;1.17;;;;;;;;;;5105358;28;20594;-79
2021/05/17 16:43:27;;;;;;;1.70;1.00;;;;;;;;;;5107803;28;20050;-78
2021/05/17 16:46:14;;;;;;;1.65;1.08;;;;;;;;;;5089927;28;20066;-77
2021/05/17 16:49:06;;;;;;;1.30;1.10;;;;;;;;;;5108082;28;20092;-78
2021/05/17 16:51:52;;;;;;;1.50;1.02;;;;;;;;;;5106992;28;20053;-78
2021/05/17 16:54:36;;;;;;;1.20;0.90;;;;;;;;;;5107939;28;20451;-79
2021/05/17 16:57:21;;;;;;;1.90;1.20;;;;;;;;;;5107266;28;20161;-78
2021/05/17 17:00:10;;;;;;;2.20;1.10;;;;;;;;;;5106227;28;20074;-79
2021/05/17 17:02:54;;;;;;;2.15;1.30;;;;;;;;;;5105672;28;20060;-77
2021/05/17 17:05:39;;;;;;;1.67;1.10;;;;;;;;;;5108600;28;20179;-79
2021/05/17 17:08:24;;;;;;;1.90;1.30;;;;;;;;;;5106093;28;20073;-76
2021/05/17 17:11:09;;;;;;;2.00;1.20;;;;;;;;;;5105328;28;20034;-80
2021/05/17 17:13:53;;;;;;;1.75;1.15;;;;;;;;;;5105495;28;20143;-76
2021/05/17 17:16:38;;;;;;;1.63;1.15;;;;;;;;;;5106839;28;20555;-77
2021/05/17 17:19:23;;;;;;;2.05;1.20;;;;;;;;;;5107585;28;20071;-76
2021/05/17 17:22:07;;;;;;;1.42;1.02;;;;;;;;;;5108370;28;20099;-76
2021/05/17 17:24:52;;;;;;;1.90;1.10;;;;;;;;;;5108485;28;20064;-76
2021/05/17 17:27:37;;;;;;;2.13;1.05;;;;;;;;;;5107593;28;20588;-76
2021/05/17 17:30:22;;;;;;;1.88;1.13;;;;;;;;;;5107838;28;20057;-77
2021/05/17 17:33:07;;;;;;;1.73;1.20;;;;;;;;;;5107391;28;20057;-76
2021/05/17 17:35:52;;;;;;;1.83;1.10;;;;;;;;;;5099682;28;20492;-77
2021/05/17 17:38:36;;;;;;;1.70;1.30;;;;;;;;;;5103657;28;20066;-77
2021/05/17 17:41:21;;;;;;;1.70;1.20;;;;;;;;;;5106684;28;20097;-76
2021/05/17 17:44:06;;;;;;;1.52;1.23;;;;;;;;;;5103212;28;20065;-76
2021/05/17 17:46:50;;;;;;;1.83;1.20;;;;;;;;;;5097726;28;20136;-76
2021/05/17 17:49:35;;;;;;;1.42;1.10;;;;;;;;;;5106786;28;20836;-78
2021/05/17 17:52:20;;;;;;;1.98;1.20;;;;;;;;;;5106474;28;20137;-76
2021/05/17 17:55:05;;;;;;;1.90;1.38;;;;;;;;;;5106753;28;20038;-77
2021/05/17 17:57:50;;;;;;;2.17;1.20;;;;;;;;;;5107853;28;20054;-77
2021/05/17 18:00:35;;;;;;;2.15;1.35;;;;;;;;;;5106465;28;20069;-77
2021/05/17 18:03:23;;;;;;;1.77;1.23;;;;;;;;;;5107976;28;20034;-77
2021/05/17 18:06:08;;;;;;;1.80;1.13;;;;;;;;;;5106470;28;20092;-77
2021/05/17 18:08:53;;;;;;;1.40;1.05;;;;;;;;;;5107407;28;20093;-77
2021/05/17 18:11:38;;;;;;;2.42;1.20;;;;;;;;;;5099272;28;20510;-76
2021/05/17 18:14:22;;;;;;;2.33;1.23;;;;;;;;;;5107435;28;20115;-76
2021/05/17 18:17:07;;;;;;;2.00;1.20;;;;;;;;;;5106061;28;20031;-77
2021/05/17 18:19:52;;;;;;;2.58;1.00;;;;;;;;;;5093562;28;20434;-76
2021/05/17 18:22:36;;;;;;;1.58;1.17;;;;;;;;;;5105431;28;20061;-77
2021/05/17 18:25:21;;;;;;;1.95;1.10;;;;;;;;;;5107466;28;20078;-75
2021/05/17 18:28:06;;;;;;;1.42;1.10;;;;;;;;;;5111256;28;20660;-76
2021/05/17 18:30:53;;;;;;;1.65;1.30;;;;;;;;;;5099721;28;20074;-76
2021/05/17 18:33:40;;;;;;;2.10;1.17;;;;;;;;;;5113489;28;20605;-75
2021/05/17 18:36:25;;;;;;;2.45;1.40;;;;;;;;;;5101125;28;20121;-77
2021/05/17 18:39:09;;;;;;;2.40;1.10;;;;;;;;;;5113354;28;20544;-77
2021/05/17 18:41:54;;;;;;;1.95;1.20;;;;;;;;;;5095955;28;20070;-76
2021/05/17 18:47:42;;;;;;;2.47;1.17;;;;;;;;;;5107109;28;20178;-77
2021/05/17 18:50:27;;;;;;;2.08;1.15;;;;;;;;;;5092350;28;20663;-77
2021/05/17 18:53:11;;;;;;;1.35;1.00;;;;;;;;;;5084385;28;20046;-77
2021/05/17 18:55:56;;;;;;;2.55;1.20;;;;;;;;;;5105763;28;20082;-77
2021/05/17 18:58:41;;;;;;;1.85;1.20;;;;;;;;;;5108997;28;20035;-77
2021/05/17 19:01:25;;;;;;;1.80;1.20;;;;;;;;;;5105368;28;20042;-77
2021/05/17 19:04:10;;;;;;;1.80;1.38;;;;;;;;;;5110704;28;20039;-77
2021/05/17 19:06:55;;;;;;;2.63;1.50;;;;;;;;;;5090856;28;20039;-77
2021/05/17 19:09:41;;;;;;;2.03;1.20;;;;;;;;;;5107629;28;20142;-77
2021/05/17 19:12:28;;;;;;;1.90;1.33;;;;;;;;;;5095626;28;20112;-78
2021/05/17 19:15:13;;;;;;;2.80;1.27;;;;;;;;;;5091187;28;20051;-78
2021/05/17 19:17:58;;;;;;;2.03;1.20;;;;;;;;;;5102900;28;20096;-78
2021/05/17 19:20:43;;;;;;;2.90;1.25;;;;;;;;;;5111018;28;20145;-78
2021/05/17 19:23:28;;;;;;;1.52;1.20;;;;;;;;;;5110575;28;20038;-80
2021/05/17 19:26:14;;;;;;;2.35;1.30;;;;;;;;;;5110299;28;20100;-78
2021/05/17 19:28:59;;;;;;;1.50;1.20;;;;;;;;;;5116242;28;20050;-78
2021/05/17 19:31:44;;;;;;;1.90;1.17;;;;;;;;;;5102090;28;20464;-76
2021/05/17 19:34:28;;;;;;;2.17;1.13;;;;;;;;;;5117936;28;20829;-77
2021/05/17 19:37:15;;;;;;;1.80;1.30;;;;;;;;;;5116732;28;20434;-77
2021/05/17 19:40:00;;;;;;;2.00;1.30;;;;;;;;;;5118408;28;20119;-76
2021/05/17 19:42:44;;;;;;;2.25;1.20;;;;;;;;;;5116405;28;20462;-78
2021/05/17 19:45:30;;;;;;;1.92;1.20;;;;;;;;;;5108496;28;20093;-77
2021/05/17 19:48:14;;;;;;;1.75;1.30;;;;;;;;;;5110138;28;20390;-79
2021/05/17 19:50:59;;;;;;;1.98;1.20;;;;;;;;;;5109389;28;20055;-79
2021/05/17 19:53:43;;;;;;;2.58;1.35;;;;;;;;;;5106561;28;20100;-78
2021/05/17 19:56:28;;;;;;;2.20;1.60;;;;;;;;;;5094562;28;20076;-79
2021/05/17 19:59:13;;;;;;;2.10;1.50;;;;;;;;;;5110154;28;20046;-78
2021/05/17 20:01:57;;;;;;;1.60;1.00;;;;;;;;;;5108385;28;20058;-79
2021/05/17 20:04:44;;;;;;;1.63;1.23;;;;;;;;;;5110212;28;20605;-78
2021/05/17 20:07:29;;;;;;;2.10;1.23;;;;;;;;;;5108417;28;20065;-77
2021/05/17 20:10:14;;;;;;;3.97;1.40;;;;;;;;;;5101424;28;20123;-77
2021/05/17 20:13:01;;;;;;;1.60;1.20;;;;;;;;;;5095168;28;20035;-79
2021/05/17 20:15:46;;;;;;;2.35;1.13;;;;;;;;;;5094278;28;20046;-80
2021/05/17 20:18:30;;;;;;;1.75;1.15;;;;;;;;;;5103842;28;20055;-77
2021/05/17 20:21:15;;;;;;;2.13;1.50;;;;;;;;;;5108953;28;20046;-79
2021/05/17 20:24:00;;;;;;;1.98;1.23;;;;;;;;;;5093445;28;20039;-79
2021/05/17 20:26:45;;;;;;;2.10;1.25;;;;;;;;;;5107923;28;20516;-78
2021/05/17 20:29:29;;;;;;;2.10;1.40;;;;;;;;;;5109094;28;20100;-79
2021/05/17 20:32:14;;;;;;;1.55;1.10;;;;;;;;;;5109380;28;20077;-79
2021/05/17 20:38:02;;;;;;;1.77;1.27;;;;;;;;;;5092253;28;20482;-79
2021/05/17 20:40:47;;;;;;;2.97;1.40;;;;;;;;;;5106678;28;20055;-78
2021/05/17 20:43:36;;;;;;;1.83;1.40;;;;;;;;;;5109006;28;20070;-79
2021/05/17 20:46:25;;;;;;;2.08;1.25;;;;;;;;;;5107959;28;20105;-81
2021/05/17 20:49:10;;;;;;;1.58;1.10;;;;;;;;;;5109246;28;20241;-78
2021/05/17 20:51:58;;;;;;;2.92;1.50;;;;;;;;;;5105914;28;20069;-78
2021/05/17 20:54:43;;;;;;;1.50;1.10;;;;;;;;;;5108447;28;20165;-79
2021/05/17 20:57:27;;;;;;;1.58;1.10;;;;;;;;;;5109134;28;20035;-80
2021/05/17 21:00:14;;;;;;;1.77;1.25;;;;;;;;;;5087706;28;20109;-79
2021/05/17 21:02:58;;;;;;;1.67;1.10;;;;;;;;;;5098191;28;20068;-80
2021/05/17 21:05:42;;;;;;;2.58;1.30;;;;;;;;;;5096460;28;20922;-79
2021/05/17 21:08:28;;;;;;;1.48;1.10;;;;;;;;;;5105976;28;20082;-78
2021/05/17 21:11:15;;;;;;;2.38;1.38;;;;;;;;;;5107542;28;20043;-77
2021/05/17 21:14:00;;;;;;;2.10;1.40;;;;;;;;;;5108634;28;20093;-80
2021/05/17 21:16:45;;;;;;;1.52;1.15;;;;;;;;;;5108212;28;20081;-79
2021/05/17 21:19:29;;;;;;;1.60;1.20;;;;;;;;;;5108662;28;20108;-79
2021/05/17 21:22:14;;;;;;;2.00;1.40;;;;;;;;;;5099234;28;20149;-79
2021/05/17 21:24:59;;;;;;;2.83;1.50;;;;;;;;;;5106968;28;20038;-77
2021/05/17 21:27:46;;;;;;;2.10;1.48;;;;;;;;;;5107505;28;20166;-77
2021/05/17 21:30:30;;;;;;;1.77;1.38;;;;;;;;;;5108661;28;20131;-78
2021/05/17 21:33:15;;;;;;;1.90;1.40;;;;;;;;;;5108006;28;20042;-78
2021/05/17 21:36:00;;;;;;;1.92;1.40;;;;;;;;;;5106604;28;20573;-78
2021/05/17 21:38:45;;;;;;;3.78;1.80;;;;;;;;;;5097105;28;20083;-78
2021/05/17 21:41:30;;;;;;;2.38;1.58;;;;;;;;;;5106684;28;20152;-77
2021/05/17 21:44:14;;;;;;;1.95;1.40;;;;;;;;;;5108426;28;20046;-78
2021/05/17 21:46:59;;;;;;;2.55;1.65;;;;;;;;;;5106694;28;20114;-77
2021/05/17 21:49:43;;;;;;;2.50;1.50;;;;;;;;;;5107933;28;20129;-78
2021/05/17 21:52:28;;;;;;;2.42;1.70;;;;;;;;;;5087866;28;20050;-77
2021/05/17 21:55:13;;;;;;;2.25;1.50;;;;;;;;;;5090723;28;20160;-77
2021/05/17 21:57:58;;;;;;;2.28;1.30;;;;;;;;;;5099263;28;20039;-77
2021/05/17 22:00:43;;;;;;;2.00;1.60;;;;;;;;;;5105960;28;20042;-78
2021/05/17 22:03:27;;;;;;;2.53;1.67;;;;;;;;;;5108266;28;20082;-78
2021/05/17 22:06:14;;;;;;;2.25;1.50;;;;;;;;;;5098406;28;20038;-78
2021/05/17 22:12:02;;;;;;;2.05;1.52;;;;;;;;;;5106017;28;20038;-79
2021/05/17 22:14:47;;;;;;;2.38;1.55;;;;;;;;;;5106688;28;20047;-78
2021/05/17 22:17:31;;;;;;;2.13;1.50;;;;;;;;;;5107501;28;20116;-78
2021/05/17 22:20:16;;;;;;;2.80;1.60;;;;;;;;;;5105381;28;20420;-79
2021/05/17 22:23:00;;;;;;;2.22;1.50;;;;;;;;;;5107865;28;20066;-78
2021/05/17 22:25:45;;;;;;;1.95;1.50;;;;;;;;;;5106743;28;20527;-78
2021/05/17 22:28:30;;;;;;;2.60;1.50;;;;;;;;;;5106907;28;20439;-78
2021/05/17 22:31:15;;;;;;;2.00;1.50;;;;;;;;;;5111090;28;20043;-78
2021/05/17 22:34:04;;;;;;;1.92;1.40;;;;;;;;;;5102363;28;20155;-79
2021/05/17 22:36:51;;;;;;;2.63;1.40;;;;;;;;;;5110027;28;20065;-78
2021/05/17 22:39:35;;;;;;;2.25;1.52;;;;;;;;;;5111566;28;20132;-78
2021/05/17 22:42:20;;;;;;;2.05;1.50;;;;;;;;;;5109950;28;20091;-77
2021/05/17 22:45:05;;;;;;;2.35;1.50;;;;;;;;;;5111083;28;20051;-77
2021/05/17 22:47:50;;;;;;;2.88;1.50;;;;;;;;;;5091615;28;20070;-77
2021/05/17 22:50:34;;;;;;;2.70;1.60;;;;;;;;;;5109213;28;20092;-78
2021/05/17 22:53:20;;;;;;;2.20;1.45;;;;;;;;;;5110320;28;20503;-79
2021/05/17 22:56:04;;;;;;;2.30;1.60;;;;;;;;;;5109910;28;20547;-78
2021/05/17 22:58:49;;;;;;;2.03;1.45;;;;;;;;;;5108220;28;20100;-78
2021/05/17 23:01:35;;;;;;;1.92;1.33;;;;;;;;;;5109220;28;20089;-81
2021/05/17 23:04:20;;;;;;;2.53;1.65;;;;;;;;;;5109857;28;20038;-78
2021/05/17 23:07:04;;;;;;;2.58;1.60;;;;;;;;;;5105263;28;20046;-77
2021/05/17 23:09:49;;;;;;;2.50;1.58;;;;;;;;;;5107910;28;20113;-77
2021/05/17 23:12:33;;;;;;;2.35;1.52;;;;;;;;;;5090948;28;20462;-77
2021/05/17 23:15:18;;;;;;;2.13;1.40;;;;;;;;;;5108417;28;20042;-78
2021/05/17 23:18:03;;;;;;;2.03;1.58;;;;;;;;;;5109629;28;20664;-77
2021/05/17 23:29:20;;;;;;;2.22;1.65;;;;;;;;;;5110368;28;20524;-76
2021/05/17 23:32:05;;;;;;;3.00;1.65;;;;;;;;;;5110202;28;20038;-77
2021/05/17 23:34:50;;;;;;;2.25;1.60;;;;;;;;;;5110430;28;20046;-77
2021/05/17 23:37:35;;;;;;;3.30;1.95;;;;;;;;;;5104923;28;20043;-77
2021/05/17 23:40:20;;;;;;;2.15;1.65;;;;;;;;;;5109915;28;20038;-77
2021/05/17 23:43:04;;;;;;;3.10;1.55;;;;;;;;;;5109460;28;20073;-77
2021/05/17 23:45:49;;;;;;;2.30;1.60;;;;;;;;;;5110167;28;20035;-77
2021/05/17 23:48:34;;;;;;;2.13;1.67;;;;;;;;;;5109224;28;20108;-76
2021/05/17 23:51:18;;;;;;;2.85;2.08;;;;;;;;;;5108194;28;20042;-78
2021/05/17 23:54:03;;;;;;;3.08;1.70;;;;;;;;;;5104140;28;20441;-78
2021/05/17 23:56:48;;;;;;;2.20;1.50;;;;;;;;;;5108287;28;20073;-77
2021/05/17 23:59:32;;;;;;;3.25;1.60;;;;;;;;;;5109525;28;20083;-77
